Other Surface Observations
Issued by NWS Missoula, MT

Home | Current Version | Previous Version | Text Only | Print | Product List | Glossary On
Versions: 1 2 3 4 5 6 7 8 9 10 11 12 13 14 15 16 17 18 19 20 21 22 23 24 25 26 27 28 29 30 31 32 33 34 35 36 37 38 39 40 41 42 43 44 45 46 47 48 49 50
773
SXUS55 KMSO 111123
OSOMSO
MONTANA AWOS SUMMARY
NATIONAL WEATHER SERVICE MISSOULA MT
423 AM MST THU FEB 11 2016

Montana AWOS Reports

LAUREL      |K6S8 111115Z AUTO 00000KT 40SM 05/M07 A3001 RMK AO1 T00501066
TWIN BRIDGES|K7S1 111115Z AUTO 18008KT 40SM 03/M04 A3018 RMK AO1 T00331043
ROUNDUP     |KRPX 111115Z AUTO 25015KT 40SM 10/M04 A2992 RMK AO1 T01001043




USA.gov is the U.S. government's official web portal to all federal, state and local government web resources and services.